Terminal Aerodrome Forecast
Issued by NWS

Home | Current Version | Previous Version | Text Only | Print | Product List | Glossary On
Versions: 1 2 3 4 5 6 7 8 9 10 11 12
599
FTUS45 KRIW 110529
TAFBPI
TAF
KBPI 110529Z 1106/1206 01007KT P6SM SCT250
     FM111400 VRB05KT P6SM FEW250
     FM111800 35011KT P6SM SCT250=

USA.gov is the U.S. government's official web portal to all federal, state and local government web resources and services.